Madigan Hospital, Washington
Current Conditions -  °F | °C
As of 9:58 PM on Tuesday 21 Oct 2014 (Local Time) from KGRF Reporting Station
Drizzle Drizzle  
Wind Chill: 59°   Ceiling: Unl
Heat Index: 59°   Visibility: 10mi
Dew Point: 47°   Wind: 17mph
Humidity: 65%   Direction: 140°SE
Pressure: 29.78"   Gusts: NA
Location:  47.1056°N, 122.55°W
Report Text: KGRF 220458Z AUTO 14015KT 10SM DZ FEW080 SCT110 15/09 A2978 RMK AO2 DZB0455 SLP088 P0000 T01510085 $
Loading
Personal Weather Stations






























Interactive Weather Map
Tropical Storm Tracking
New forecast layout! Learn more

10-Day Weather Forecast

Advertisements
Track Severe Weather on mobile